ABX weather

Albury Airport
Albury, New South Wales, Australia

Public forecast

Using degrees Celsius for public forecast. Weather courtesy of forecast.io.

METAR (pilot weather report)

Retrieved 2017/07/27 19:00 UTC (56 minutes ago):

YMAY 271900Z AUTO 29011KT 9999 // SCT052 08/07 Q1015

TAF (pilot weather forecast)

Closest forecast is Wangaratta Airport, 37.8 nm (70.0 km) WSW. Retrieved 2017/07/27 20:03 UTC (0 seconds ago):

TAF YWGT 271856Z 2720/2808 26008KT 9999 FEW010 SCT020 FM272400 27008KT 9999 SCT030 PROB30 2720/2722 2000 BR SCT005